Pagrindinis puslapis
METAR-TAF:

METAR-TAF

Oro uostai :

Belgaum, Indija

platuma: 15-51-33N, ilguma: 74-37-03E, Aukštis: 758 m

Dabartinis oras

Ataskaita buvo paskelbta 9 valandos ir 13 minutes, ne 13:00 UTC
Vėjas 6 kt iš Rytų/Šiaurės Rytų
Temperatūra 22°C
Drėgmė 83%
Slėgis 1017 hPa
Matomumas: 8000 m
Mažai debesys ne aukštis 1200 ft
Išsisklaidę debesys ne aukštis 8000 ft

METAR: VOBM 291300Z 07006KT 8000 FEW012 SCT080 22/19 Q1017

Laikas: 03:43 (22:13 UTC)

Prognozė

Ataskaita buvo paskelbta 5 valandos ir 13 minutes, ne 17:00 UTC
Prognozė galioja nuo 29 metu 18 UTC su 30 metu 03 UTC
Vėjas 5 kt iš Rytų
Matomumas: 6000 m
Išsisklaidę debesys ne aukštis 1500 ft
Išsisklaidę debesys ne aukštis 8000 ft
Laikinai
nuo 30 metu 00 UTC su 30 metu 03 UTC
Matomumas: 3000 m
Išsisklaidę debesys ne aukštis 800 ft
Išsisklaidę debesys ne aukštis 1200 ft
rūkana

TAF: VOBM 291700Z 2918/3003 09005KT 6000 SCT015 SCT080 TEMPO 3000/3003 3000 BR SCT008 SCT012

Orai ataskaitas ir orų prognozės (METAR, TAF).

turimą stotys yra geltonos ir raudonos taškus žemėlapyje.

Perkelti pele per norėdami pamatyti stoties vardą.

Tada spustelėkite, norėdami matyti oro stebėjimo ir prognozės.

Norėdami pakeisti žemėlapį: spustelėkite ant žalios mygtukų su juodo kryžiaus žemyn,; žalią mygtuką su brūkšneliu, jei norite nutolinti; arba žalių rodyklių gretimoms žemėlapius.


METAR-TAF: